createdAt,value
2022-08-28T05:57:53.987Z,25.95
2022-08-28T06:05:56.661Z,26.90
2022-08-28T06:08:25.548Z,23.75
2022-08-28T06:10:54.447Z,19.48
2022-08-28T06:13:23.227Z,20.23
2022-08-28T06:15:52.697Z,19.60
2022-08-28T06:18:23.020Z,21.17
2022-08-28T06:20:52.028Z,17.25
2022-08-28T06:23:23.822Z,21.58
2022-08-28T06:25:53.828Z,17.27
2022-08-28T06:28:25.107Z,15.65
2022-08-28T06:31:18.516Z,16.83
2022-08-28T06:35:22.949Z,18.77
2022-08-28T06:37:51.822Z,19.30
2022-08-28T06:40:20.643Z,17.85
2022-08-28T06:42:49.507Z,20.33
2022-08-28T06:45:18.669Z,19.48
2022-08-28T06:47:49.283Z,20.85
2022-08-28T06:50:23.679Z,21.50
2022-08-28T06:52:52.588Z,19.88
2022-08-28T06:55:21.348Z,21.40
2022-08-28T06:57:50.261Z,18.00
2022-08-28T07:00:19.442Z,17.67
2022-08-28T07:02:48.300Z,19.60
2022-08-28T07:05:17.307Z,21.00
2022-08-28T07:07:47.669Z,20.42
2022-08-28T07:10:16.588Z,19.33
2022-08-28T07:12:45.487Z,19.77
2022-08-28T07:15:14.307Z,18.20
2022-08-28T07:17:43.160Z,17.83
2022-08-28T07:20:13.111Z,21.85
2022-08-28T07:22:42.349Z,18.25
2022-08-28T07:25:12.747Z,14.75
2022-08-28T07:27:41.668Z,17.88
2022-08-28T07:30:13.283Z,16.30
2022-08-28T07:32:42.149Z,14.55
2022-08-28T07:35:11.382Z,16.95
2022-08-28T07:37:40.874Z,17.02
2022-08-28T07:40:12.985Z,17.45
2022-08-28T07:42:59.583Z,15.20
2022-08-28T07:45:30.255Z,18.20
2022-08-28T07:47:59.108Z,14.30
2022-08-28T07:50:27.907Z,12.55
2022-08-28T07:52:56.861Z,15.75
2022-08-28T07:55:29.912Z,14.48
2022-08-28T07:57:58.699Z,13.32
2022-08-28T08:00:27.627Z,12.82
2022-08-28T08:02:56.469Z,13.80
2022-08-28T08:05:25.791Z,12.32
2022-08-28T08:07:54.627Z,14.65
2022-08-28T08:10:23.948Z,13.13
2022-08-28T08:12:54.229Z,12.82
2022-08-28T08:15:25.017Z,11.65
2022-08-28T08:17:55.283Z,14.57
2022-08-28T08:20:24.025Z,13.27
2022-08-28T08:22:53.046Z,11.93
2022-08-28T08:25:21.725Z,14.15
2022-08-28T08:27:53.595Z,11.73
2022-08-28T08:30:22.427Z,9.98
2022-08-28T08:32:52.307Z,11.52
2022-08-28T08:35:23.439Z,13.07
2022-08-28T08:37:52.708Z,13.00
2022-08-28T08:40:21.931Z,10.73
2022-08-28T08:42:55.679Z,13.50
2022-08-28T08:45:27.759Z,9.45
2022-08-28T08:47:57.395Z,12.25
2022-08-28T08:50:29.507Z,12.40
2022-08-28T08:53:16.588Z,11.95
2022-08-28T08:55:48.028Z,11.95
2022-08-28T08:58:25.480Z,8.30
2022-08-28T09:01:02.980Z,9.07
2022-08-28T09:03:48.873Z,8.77
2022-08-28T09:06:26.227Z,8.38
2022-08-28T09:09:00.984Z,12.30
2022-08-28T09:11:43.199Z,12.90
2022-08-28T09:14:20.643Z,11.10
2022-08-28T09:16:58.543Z,13.05
2022-08-28T09:19:27.642Z,13.32
2022-08-28T09:21:56.522Z,9.23
2022-08-28T09:24:28.485Z,12.55
2022-08-28T09:27:00.627Z,9.35
2022-08-28T09:29:32.938Z,10.85
2022-08-28T09:32:23.656Z,10.05
2022-08-28T09:35:13.956Z,9.95
2022-08-28T09:37:44.087Z,11.65
2022-08-28T09:40:22.682Z,9.90
2022-08-28T09:43:23.701Z,13.05
2022-08-28T09:46:00.550Z,11.40
2022-08-28T09:48:36.578Z,11.57
2022-08-28T09:51:08.107Z,9.38
2022-08-28T09:53:43.081Z,13.48
2022-08-28T09:56:18.470Z,10.05
2022-08-28T09:58:51.711Z,9.75
2022-08-28T10:01:45.465Z,10.02
2022-08-28T10:04:35.881Z,11.98
2022-08-28T10:07:09.944Z,10.50
2022-08-28T10:09:46.960Z,9.93
2022-08-28T10:12:31.765Z,12.65
2022-08-28T10:15:07.247Z,7.35
2022-08-28T10:17:42.183Z,8.15
2022-08-28T10:20:18.058Z,8.25
2022-08-28T10:22:55.201Z,7.32
2022-08-28T10:25:32.604Z,7.47
2022-08-28T10:28:23.878Z,7.60
2022-08-28T10:31:03.702Z,8.68
2022-08-28T10:33:45.616Z,7.57
2022-08-28T10:36:34.062Z,7.20
2022-08-28T10:39:21.916Z,7.00
2022-08-28T10:41:56.286Z,6.07
2022-08-28T10:44:31.428Z,6.28
2022-08-28T10:47:01.189Z,8.07
2022-08-28T10:49:36.067Z,6.07
2022-08-28T10:52:10.265Z,23.55
2022-08-28T10:54:44.403Z,6.25
2022-08-28T10:57:26.042Z,6.78
2022-08-28T10:59:55.442Z,5.88
2022-08-28T11:02:27.693Z,7.55
2022-08-28T11:04:58.928Z,7.88
2022-08-28T11:07:34.070Z,5.43
2022-08-28T11:10:41.760Z,7.20
2022-08-28T11:13:11.271Z,5.70
2022-08-28T11:15:51.879Z,7.00
2022-08-28T11:18:53.324Z,6.32
2022-08-28T11:21:26.946Z,5.97
2022-08-28T11:24:04.665Z,5.95
2022-08-28T11:26:49.047Z,7.82
2022-08-28T11:29:51.006Z,9.15
2022-08-28T11:32:41.430Z,5.93
2022-08-28T11:35:51.322Z,6.00
2022-08-28T11:38:53.044Z,5.75
2022-08-28T11:41:27.472Z,6.93
2022-08-28T11:44:25.712Z,6.20
2022-08-28T11:46:57.280Z,7.20
2022-08-28T11:49:45.426Z,6.22
2022-08-28T11:52:44.238Z,7.35
2022-08-28T11:55:26.619Z,5.47
2022-08-28T12:00:52.338Z,7.95
2022-08-28T12:03:28.988Z,9.80
2022-08-28T12:05:59.067Z,6.22
2022-08-28T12:09:11.354Z,4.72
2022-08-28T12:12:13.766Z,10.15
2022-08-28T12:15:07.753Z,6.72
2022-08-28T12:17:51.904Z,8.32
2022-08-28T12:20:26.505Z,5.97
2022-08-28T12:22:58.318Z,5.87
2022-08-28T12:25:32.407Z,5.35
2022-08-28T12:28:13.133Z,5.45
2022-08-28T12:30:50.889Z,8.07
2022-08-28T12:33:28.505Z,7.72
2022-08-28T12:36:03.494Z,6.20
2022-08-28T12:38:34.779Z,6.10
2022-08-28T12:41:04.182Z,7.13
2022-08-28T12:43:40.316Z,5.28
2022-08-28T12:46:19.627Z,5.57
2022-08-28T12:48:54.479Z,6.75
2022-08-28T12:51:25.240Z,5.82
2022-08-28T12:53:56.541Z,4.72
2022-08-28T12:56:26.706Z,6.75
2022-08-28T12:58:55.404Z,6.55
2022-08-28T13:01:32.148Z,5.75
2022-08-28T13:04:03.707Z,7.53
2022-08-28T13:06:34.965Z,4.57
2022-08-28T13:09:05.904Z,5.45
2022-08-28T13:11:39.303Z,5.53
2022-08-28T13:14:09.406Z,4.68
2022-08-28T13:16:43.279Z,7.47
2022-08-28T13:19:21.788Z,4.60
2022-08-28T13:21:58.840Z,11.60
2022-08-28T13:24:44.763Z,7.10
2022-08-28T13:27:25.119Z,4.85
2022-08-28T13:30:01.481Z,5.10
2022-08-28T13:32:33.347Z,9.18
2022-08-28T13:35:40.081Z,5.38
2022-08-28T13:38:11.762Z,5.25
2022-08-28T13:40:57.393Z,5.35
2022-08-28T13:43:29.474Z,5.82
2022-08-28T13:45:58.772Z,5.55
2022-08-28T13:48:30.244Z,4.72
2022-08-28T13:51:07.498Z,4.72
2022-08-28T13:53:39.121Z,4.55
2022-08-28T13:56:08.451Z,5.07
2022-08-28T13:58:37.260Z,5.50
2022-08-28T14:01:06.652Z,4.20
2022-08-28T14:03:36.044Z,4.63
2022-08-28T14:06:06.119Z,4.75
2022-08-28T14:08:34.960Z,4.75
2022-08-28T14:11:03.741Z,4.97
2022-08-28T14:13:32.939Z,5.03
2022-08-28T14:16:05.019Z,4.88
2022-08-28T14:18:34.306Z,4.90
2022-08-28T14:21:06.539Z,4.90
2022-08-28T14:23:35.359Z,4.35
2022-08-28T14:26:06.248Z,4.88
2022-08-28T14:28:35.033Z,5.80
2022-08-28T14:31:11.051Z,8.10
2022-08-28T14:33:45.225Z,7.13
2022-08-28T14:36:18.599Z,4.82
2022-08-28T14:38:47.461Z,8.13
2022-08-28T14:41:17.601Z,5.88
2022-08-28T14:43:46.844Z,8.10
2022-08-28T14:46:21.675Z,4.68
2022-08-28T14:48:51.086Z,4.80
2022-08-28T14:51:21.187Z,4.80
2022-08-28T14:53:49.999Z,4.43
2022-08-28T14:56:19.397Z,4.70
2022-08-28T14:58:48.425Z,5.68
2022-08-28T15:01:36.261Z,5.00
2022-08-28T15:04:11.409Z,4.55
2022-08-28T15:06:42.565Z,6.10
2022-08-28T15:09:12.302Z,4.45
2022-08-28T15:11:41.425Z,5.18
2022-08-28T15:14:10.365Z,4.28
2022-08-28T15:16:42.120Z,4.30
2022-08-28T15:19:13.302Z,4.13
2022-08-28T15:21:46.607Z,5.13
2022-08-28T15:24:17.566Z,5.93
2022-08-28T15:26:46.973Z,5.85
2022-08-28T15:29:16.757Z,4.43
2022-08-28T15:31:48.171Z,4.40
2022-08-28T15:34:19.888Z,4.53
2022-08-28T15:36:55.630Z,4.80
2022-08-28T15:39:42.759Z,5.20
2022-08-28T15:42:12.246Z,4.53
2022-08-28T15:44:41.005Z,4.38
2022-08-28T15:47:10.074Z,4.72
2022-08-28T15:49:44.684Z,5.70
2022-08-28T15:52:21.267Z,5.15
2022-08-28T15:54:50.790Z,4.78
2022-08-28T15:57:20.084Z,4.60
2022-08-28T15:59:50.810Z,6.68
2022-08-28T16:02:21.566Z,7.28
2022-08-28T16:04:50.539Z,5.35
2022-08-28T16:07:22.008Z,4.50
2022-08-28T16:09:50.902Z,4.47
2022-08-28T16:12:20.754Z,5.78
2022-08-28T16:14:50.487Z,4.30
2022-08-28T16:17:19.330Z,6.80
2022-08-28T16:19:48.847Z,5.53
2022-08-28T16:22:18.059Z,4.22
2022-08-28T16:24:48.587Z,5.00
2022-08-28T16:27:17.339Z,4.40
2022-08-28T16:29:46.527Z,4.80
2022-08-28T16:32:18.467Z,6.15
2022-08-28T16:34:47.179Z,4.93
2022-08-28T16:37:19.475Z,5.63
2022-08-28T16:39:54.754Z,5.15
2022-08-28T16:42:23.963Z,4.28
2022-08-28T16:44:57.448Z,4.68
2022-08-28T16:47:27.007Z,5.03
2022-08-28T16:50:01.958Z,4.22
2022-08-28T16:52:30.804Z,5.32
2022-08-28T16:55:01.186Z,5.00
2022-08-28T16:57:30.525Z,6.07
2022-08-28T17:00:00.503Z,7.88
2022-08-28T17:02:29.524Z,4.20
2022-08-28T17:05:00.620Z,4.63
2022-08-28T17:07:29.785Z,4.40
2022-08-28T17:09:58.504Z,5.20
2022-08-28T17:12:28.703Z,4.78
2022-08-28T17:14:57.359Z,5.60
2022-08-28T17:17:26.283Z,4.47
2022-08-28T17:19:55.148Z,6.28
2022-08-28T17:22:32.249Z,7.00
2022-08-28T17:25:02.571Z,7.07
2022-08-28T17:27:33.362Z,6.35
2022-08-28T17:30:05.049Z,6.00
2022-08-28T17:32:34.084Z,6.22
2022-08-28T17:35:03.206Z,6.05
2022-08-28T17:37:31.924Z,6.07
2022-08-28T17:40:00.694Z,7.97
2022-08-28T17:42:29.474Z,6.18
2022-08-28T17:44:59.779Z,7.97
2022-08-28T17:47:30.884Z,4.35
2022-08-28T17:50:00.833Z,4.55
2022-08-28T17:52:30.117Z,4.53
2022-08-28T17:54:59.128Z,4.82
2022-08-28T17:57:30.569Z,5.18
2022-08-28T18:00:02.224Z,5.45
2022-08-28T18:02:40.539Z,7.53
2022-08-28T18:05:11.268Z,7.03
2022-08-28T18:07:40.168Z,5.25
2022-08-28T18:10:09.682Z,5.03
2022-08-28T18:12:38.487Z,5.13
2022-08-28T18:15:10.784Z,9.48
2022-08-28T18:17:40.479Z,5.68
2022-08-28T18:20:11.667Z,5.38
2022-08-28T18:22:40.522Z,5.47
2022-08-28T18:25:29.563Z,7.15
2022-08-28T18:27:58.484Z,6.53
2022-08-28T18:30:29.202Z,4.85
2022-08-28T18:32:58.506Z,5.72
2022-08-28T18:35:32.109Z,6.75
2022-08-28T18:38:01.756Z,5.18
2022-08-28T18:40:30.772Z,5.30
2022-08-28T18:42:59.799Z,5.30
2022-08-28T18:45:31.588Z,5.18
2022-08-28T18:48:00.882Z,5.95
2022-08-28T18:50:31.419Z,5.43
2022-08-28T18:53:01.583Z,6.60
2022-08-28T18:55:32.288Z,5.97
2022-08-28T18:58:02.908Z,5.90
2022-08-28T19:00:33.225Z,10.15
2022-08-28T19:03:02.010Z,7.05
2022-08-28T19:05:30.887Z,8.80
2022-08-28T19:08:02.270Z,6.25
2022-08-28T19:10:34.409Z,6.00
2022-08-28T19:13:04.164Z,6.13
2022-08-28T19:15:35.885Z,7.65
2022-08-28T19:18:05.639Z,6.30
2022-08-28T19:20:34.841Z,5.53
2022-08-28T19:23:03.601Z,6.00
2022-08-28T19:25:32.623Z,9.13
2022-08-28T19:28:02.441Z,7.65
2022-08-28T19:30:34.646Z,6.00
2022-08-28T19:33:04.882Z,7.78
2022-08-28T19:35:34.740Z,8.20
2022-08-28T19:38:03.619Z,7.38
2022-08-28T19:40:33.803Z,9.77
2022-08-28T19:43:02.619Z,7.15
2022-08-28T19:45:35.716Z,8.75
2022-08-28T19:48:04.821Z,6.55
2022-08-28T19:50:33.562Z,8.40
2022-08-28T19:53:02.241Z,7.50
2022-08-28T19:55:31.759Z,6.25
2022-08-28T19:58:04.186Z,10.02
2022-08-28T20:00:36.978Z,7.88
2022-08-28T20:03:05.977Z,6.78
2022-08-28T20:05:35.088Z,6.70
2022-08-28T20:08:07.273Z,7.07
2022-08-28T20:10:36.087Z,8.93
2022-08-28T20:13:05.325Z,7.55
2022-08-28T20:15:35.551Z,6.97
2022-08-28T20:18:04.360Z,14.93
2022-08-28T20:20:33.121Z,6.63
2022-08-28T20:23:02.558Z,11.07
2022-08-28T20:25:31.618Z,8.88
2022-08-28T20:28:01.842Z,8.43
2022-08-28T20:30:30.764Z,8.23
2022-08-28T20:33:02.243Z,8.88
2022-08-28T20:35:31.206Z,9.93
2022-08-28T20:38:00.020Z,10.15
2022-08-28T20:40:28.897Z,8.00
2022-08-28T20:42:57.646Z,7.05
2022-08-28T20:45:26.606Z,9.65
2022-08-28T20:47:55.479Z,9.75
2022-08-28T20:50:25.598Z,7.05
2022-08-28T20:52:54.362Z,9.40
2022-08-28T20:55:23.200Z,9.32
2022-08-28T20:57:52.603Z,7.93
2022-08-28T21:00:21.359Z,10.18
2022-08-28T21:02:50.087Z,11.90
2022-08-28T21:05:18.925Z,7.63
2022-08-28T21:07:49.145Z,9.70
2022-08-28T21:10:18.046Z,7.55
2022-08-28T21:12:46.780Z,7.72
2022-08-28T21:15:15.528Z,7.78
2022-08-28T21:17:44.552Z,7.43
2022-08-28T21:20:15.879Z,9.05
2022-08-28T21:22:44.714Z,10.82
2022-08-28T21:25:15.598Z,11.70
2022-08-28T21:27:44.409Z,8.20
2022-08-28T21:30:16.083Z,15.25
2022-08-28T21:32:45.283Z,8.68
2022-08-28T21:35:15.082Z,10.48
